Lewiston, Michigan
Current Conditions -  °F | °C
As of 8:53 AM on Monday 20 Oct 2014 (Local Time) from KGLR Reporting Station
Overcast Overcast  
Wind Chill: 43°   Ceiling: 1600
Heat Index: 47°   Visibility: 8mi
Dew Point: 45°   Wind: 9mph
Humidity: 93%   Direction: 240°WSW
Pressure: 29.76"   Gusts: NA
Location:  44.88°N, 84.31°W
Report Text: KGLR 201253Z AUTO 24008KT 8SM OVC016 08/07 A2976 RMK AO2 SLP084 T00830072
Loading
Personal Weather Stations






























Interactive Weather Map New forecast layout! Learn more

10-Day Weather Forecast

Advertisements
Track Severe Weather on mobile